Time;durP1;ratioP1;P1;durP2;ratioP2;P2;SDS_P1;SDS_P2;PMS_P1;PMS_P2;Temp;Humidity;BMP_temperature;BMP_pressure;BME280_temperature;BME280_humidity;BME280_pressure;Samples;Min_cycle;Max_cycle;Signal;HPM_P1;HPM_P2
2022/09/17 00:01:35;;;;;;;3.27;2.50;;;;;;;7.99;77.65;99073.34;2177810;80;21507;-78
2022/09/17 00:04:36;;;;;;;4.20;2.10;;;;;;;7.98;77.72;99071.71;2175447;81;20969;-78
2022/09/17 00:07:37;;;;;;;5.72;2.15;;;;;;;7.96;77.83;99069.23;2177611;80;21059;-78
2022/09/17 00:10:40;;;;;;;4.25;2.37;;;;;;;7.97;77.89;99075.33;2177613;80;20968;-78
2022/09/17 00:13:43;;;;;;;3.95;2.08;;;;;;;7.95;78.01;99072.88;2178861;80;21003;-79
2022/09/17 00:16:48;;;;;;;2.87;2.20;;;;;;;7.92;77.97;99077.70;2192394;80;21027;-77
2022/09/17 00:19:48;;;;;;;2.92;2.17;;;;;;;7.93;78.12;99075.38;2195107;80;20978;-80
2022/09/17 00:22:49;;;;;;;3.02;2.30;;;;;;;7.93;78.08;99076.69;2193419;80;21041;-77
2022/09/17 00:25:50;;;;;;;4.08;2.33;;;;;;;7.89;78.06;99070.13;2194965;80;20963;-78
2022/09/17 00:28:53;;;;;;;9.38;3.60;;;;;;;7.89;78.38;99073.59;2195444;80;20987;-75
2022/09/17 00:31:54;;;;;;;8.65;2.60;;;;;;;7.89;78.39;99074.09;2199905;80;20980;-78
2022/09/17 00:34:55;;;;;;;8.88;2.30;;;;;;;7.88;78.35;99068.47;2192452;80;21494;-77
2022/09/17 00:37:56;;;;;;;5.65;2.47;;;;;;;7.88;78.46;99066.64;2198736;80;21511;-78
2022/09/17 00:40:57;;;;;;;4.20;2.70;;;;;;;7.90;78.64;99065.97;2193957;80;21489;-80
2022/09/17 00:44:03;;;;;;;3.22;2.12;;;;;;;7.92;78.62;99079.02;2192244;80;20986;-78
2022/09/17 00:47:04;;;;;;;4.95;2.62;;;;;;;7.88;78.54;99066.64;2192365;80;20992;-76
2022/09/17 00:50:14;;;;;;;6.70;2.10;;;;;;;7.89;78.60;99068.30;2200953;80;21062;-78
2022/09/17 00:53:18;;;;;;;5.83;2.10;;;;;;;7.88;78.58;99067.14;2191982;80;21011;-75
2022/09/17 00:56:27;;;;;;;7.90;2.20;;;;;;;7.87;78.64;99057.08;2195395;80;21569;-78
2022/09/17 00:59:28;;;;;;;3.33;2.20;;;;;;;7.88;78.71;99061.36;2194492;80;21026;-77
2022/09/17 01:02:29;;;;;;;4.95;2.30;;;;;;;7.88;78.83;99055.26;2196683;80;21019;-77
2022/09/17 01:06:05;;;;;;;5.22;2.30;;;;;;;7.88;79.23;99053.44;2204950;80;21066;-77
2022/09/17 01:09:38;;;;;;;6.60;2.93;;;;;;;7.89;79.28;99050.32;2180803;80;20994;-77
2022/09/17 01:12:50;;;;;;;2.65;1.87;;;;;;;7.88;79.32;99053.44;2194265;80;20994;-78
2022/09/17 01:15:56;;;;;;;3.58;2.10;;;;;;;7.90;79.40;99050.63;2192504;80;21142;-78
2022/09/17 01:19:21;;;;;;;4.40;2.05;;;;;;;7.92;79.45;99045.50;2186224;80;21020;-78
2022/09/17 01:22:33;;;;;;;5.85;2.27;;;;;;;7.93;79.59;99044.48;2185641;80;20958;-76
2022/09/17 01:25:52;;;;;;;5.55;1.80;;;;;;;7.93;79.46;99041.84;2193068;80;20983;-77
2022/09/17 01:29:41;;;;;;;5.78;2.40;;;;;;;7.95;79.68;99054.39;2195752;80;21061;-79
2022/09/17 01:33:16;;;;;;;3.58;2.20;;;;;;;7.96;79.68;99056.53;2190416;80;21002;-78
2022/09/17 01:37:07;;;;;;;3.42;2.22;;;;;;;7.95;79.74;99043.83;2190042;80;21031;-75
2022/09/17 01:40:18;;;;;;;;;;;;;;;7.97;79.73;99045.80;2194097;80;20994;-78
2022/09/17 01:43:30;;;;;;;5.08;1.75;;;;;;;7.98;79.83;99047.94;2187053;80;20413;-79
2022/09/17 01:46:39;;;;;;;5.03;1.92;;;;;;;7.96;79.84;99042.81;2165002;80;20984;-79
2022/09/17 01:49:41;;;;;;;6.55;2.20;;;;;;;7.95;79.82;99043.83;2188388;80;21049;-78
2022/09/17 01:52:47;;;;;;;5.75;2.17;;;;;;;7.95;79.95;99046.47;2188358;80;21549;-80
2022/09/17 01:55:52;;;;;;;4.67;2.42;;;;;;;7.95;79.96;99041.19;2186246;80;20972;-79
2022/09/17 01:59:01;;;;;;;2.70;1.98;;;;;;;7.96;79.99;99036.21;2192866;80;21022;-76
2022/09/17 02:02:07;;;;;;;3.05;1.92;;;;;;;7.96;80.01;99041.49;2187777;80;20953;-78
2022/09/17 02:05:17;;;;;;;5.53;1.80;;;;;;;7.95;80.00;99035.08;2185250;80;21466;-78
2022/09/17 02:08:26;;;;;;;2.27;1.90;;;;;;;7.97;80.23;99038.34;2189718;80;21007;-78
2022/09/17 02:11:28;;;;;;;2.83;2.17;;;;;;;7.97;80.51;99039.20;2171590;80;21108;-77
2022/09/17 02:14:34;;;;;;;4.83;2.10;;;;;;;7.98;80.54;99039.51;2186119;80;20998;-77
2022/09/17 02:17:48;;;;;;;3.35;2.20;;;;;;;8.01;80.83;99037.83;2184879;80;21544;-78
2022/09/17 02:20:58;;;;;;;4.45;2.50;;;;;;;8.05;80.87;99032.53;2183651;80;21522;-78
2022/09/17 02:24:13;;;;;;;7.97;2.40;;;;;;;8.11;80.81;99038.08;2177966;80;21040;-77
2022/09/17 02:27:28;;;;;;;3.77;2.37;;;;;;;8.15;80.96;99024.86;2180692;80;21030;-77
2022/09/17 02:30:30;;;;;;;4.50;2.75;;;;;;;8.20;80.84;99024.64;2181551;80;21533;-79
2022/09/17 02:33:34;;;;;;;3.85;2.62;;;;;;;8.25;80.86;99030.23;2184286;80;21016;-77
2022/09/17 02:36:35;;;;;;;7.97;2.87;;;;;;;8.29;80.93;99021.44;2183569;80;21034;-77
2022/09/17 02:39:36;;;;;;;4.47;2.72;;;;;;;8.34;80.83;99026.20;2181639;80;20990;-77
2022/09/17 02:43:06;;;;;;;3.85;3.15;;;;;;;8.37;80.66;99031.12;2180299;80;20978;-80
2022/09/17 02:46:24;;;;;;;7.22;2.90;;;;;;;8.39;80.61;99026.48;2180607;80;20979;-77
2022/09/17 02:49:49;;;;;;;3.20;2.58;;;;;;;8.40;80.51;99021.54;2180791;80;20992;-76
2022/09/17 02:53:08;;;;;;;6.70;2.75;;;;;;;8.43;80.63;99015.89;2184405;80;21025;-77
2022/09/17 02:56:26;;;;;;;5.55;3.08;;;;;;;8.43;80.49;99016.70;2180295;80;21006;-76
2022/09/17 02:59:44;;;;;;;3.45;2.75;;;;;;;8.44;80.54;99018.84;2176019;80;21515;-78
2022/09/17 03:02:59;;;;;;;8.20;3.10;;;;;;;8.46;80.56;99017.66;2190807;80;20988;-80
2022/09/17 03:06:01;;;;;;;4.17;2.50;;;;;;;8.51;80.71;99020.59;2182346;80;21005;-77
2022/09/17 03:09:02;;;;;;;3.12;2.80;;;;;;;8.57;80.76;99015.09;2184560;80;20988;-77
2022/09/17 03:12:04;;;;;;;2.58;2.37;;;;;;;8.62;80.70;99014.05;2179920;80;21059;-77
2022/09/17 03:15:06;;;;;;;3.55;2.10;;;;;;;8.70;80.52;99011.80;2181483;80;20980;-76
2022/09/17 03:18:07;;;;;;;3.00;2.08;;;;;;;8.75;80.46;99008.12;2190028;80;21035;-78
2022/09/17 03:21:10;;;;;;;6.47;2.67;;;;;;;8.80;80.40;99011.04;2185710;80;21481;-76
2022/09/17 03:24:11;;;;;;;5.42;2.33;;;;;;;8.86;80.43;99002.87;2189654;80;21518;-78
2022/09/17 03:27:13;;;;;;;4.10;2.02;;;;;;;8.92;80.41;99010.89;2186050;80;20992;-78
2022/09/17 03:30:14;;;;;;;4.50;2.10;;;;;;;8.98;80.35;99006.22;2188863;80;21037;-79
2022/09/17 03:33:15;;;;;;;3.80;2.20;;;;;;;9.02;80.29;99004.02;2157279;80;21563;-77
2022/09/17 03:36:16;;;;;;;6.22;2.50;;;;;;;9.09;80.31;99009.38;2188558;80;21455;-77
2022/09/17 03:39:17;;;;;;;8.23;2.95;;;;;;;9.13;80.29;99005.38;2185362;80;20974;-78
2022/09/17 03:42:18;;;;;;;7.90;2.42;;;;;;;9.16;80.21;99008.47;2186381;80;21031;-77
2022/09/17 03:45:19;;;;;;;5.50;2.83;;;;;;;9.20;80.20;99007.59;2185081;80;20990;-73
2022/09/17 03:48:20;;;;;;;5.37;2.65;;;;;;;9.23;80.12;99010.37;2185446;80;21042;-77
2022/09/17 03:51:21;;;;;;;3.83;2.35;;;;;;;9.26;80.04;99011.33;2187802;80;21499;-76
2022/09/17 03:54:22;;;;;;;8.08;2.52;;;;;;;9.29;80.09;99010.95;2186972;80;20994;-77
2022/09/17 03:57:23;;;;;;;3.85;2.47;;;;;;;9.33;80.11;99018.34;2189616;80;21006;-78
2022/09/17 04:00:24;;;;;;;6.85;2.17;;;;;;;9.37;80.13;99016.95;2187893;80;21532;-80
2022/09/17 04:03:27;;;;;;;3.55;2.65;;;;;;;9.38;79.96;99009.86;2186608;80;20943;-77
2022/09/17 04:06:28;;;;;;;4.17;2.20;;;;;;;9.41;80.02;99014.78;2188740;80;20973;-76
2022/09/17 04:09:29;;;;;;;3.58;2.10;;;;;;;9.42;80.04;99009.80;2189816;80;20977;-78
2022/09/17 04:12:31;;;;;;;4.70;3.00;;;;;;;9.43;80.20;99011.42;2188709;80;21568;-77
2022/09/17 04:15:32;;;;;;;4.35;2.55;;;;;;;9.43;80.21;99013.59;2189103;80;22130;-80
2022/09/17 04:18:33;;;;;;;5.22;2.22;;;;;;;9.43;80.21;99009.63;2192510;80;21003;-78
2022/09/17 04:21:34;;;;;;;5.08;2.40;;;;;;;9.42;80.32;99008.47;2198495;80;21009;-77
2022/09/17 04:24:35;;;;;;;6.22;2.75;;;;;;;9.41;80.32;99012.95;2195612;80;21007;-77
2022/09/17 04:27:36;;;;;;;2.95;2.22;;;;;;;9.42;80.35;99015.91;2192658;80;20948;-76
2022/09/17 04:30:38;;;;;;;6.22;2.92;;;;;;;9.44;80.38;99022.34;2194872;80;21015;-79
2022/09/17 04:33:39;;;;;;;6.37;3.02;;;;;;;9.45;80.39;99019.19;2193348;80;21016;-77
2022/09/17 04:36:40;;;;;;;9.40;2.45;;;;;;;9.47;80.36;99017.19;2199500;80;20972;-79
2022/09/17 04:39:41;;;;;;;3.47;2.30;;;;;;;9.48;80.47;99020.95;2192871;80;21563;-79
2022/09/17 04:42:42;;;;;;;2.83;1.90;;;;;;;9.48;80.50;99019.63;2193781;80;20962;-79
2022/09/17 04:45:48;;;;;;;4.42;1.98;;;;;;;9.47;80.54;99014.03;2194623;80;20955;-80
2022/09/17 04:48:49;;;;;;;3.58;2.15;;;;;;;9.48;80.66;99019.63;2191557;80;20990;-78
2022/09/17 04:51:50;;;;;;;5.05;2.27;;;;;;;9.47;80.63;99019.84;2193359;80;21045;-78
2022/09/17 04:54:50;;;;;;;4.47;2.15;;;;;;;9.47;80.58;99023.81;2193077;80;21000;-78
2022/09/17 04:57:53;;;;;;;3.70;2.02;;;;;;;9.48;80.64;99025.44;2193300;80;20986;-77
2022/09/17 05:00:53;;;;;;;8.30;2.50;;;;;;;9.50;80.62;99028.22;2191944;80;21470;-79
2022/09/17 05:03:55;;;;;;;6.53;2.22;;;;;;;9.51;80.55;99035.14;2204543;80;21137;-77
2022/09/17 05:06:56;;;;;;;4.20;2.08;;;;;;;9.53;80.57;99040.27;2190738;80;21015;-76
2022/09/17 05:09:57;;;;;;;4.22;1.90;;;;;;;9.54;80.60;99040.06;2192436;80;21047;-78
2022/09/17 05:12:58;;;;;;;3.20;2.02;;;;;;;9.54;80.94;99036.09;2192082;80;21019;-80
2022/09/17 05:15:59;;;;;;;3.42;1.70;;;;;;;9.56;80.87;99041.22;2193422;80;21035;-78
2022/09/17 05:19:00;;;;;;;2.98;1.80;;;;;;;9.59;80.93;99039.52;2173964;81;21549;-80
2022/09/17 05:22:02;;;;;;;3.08;1.67;;;;;;;9.63;81.02;99028.89;2172985;80;21577;-78
2022/09/17 05:25:04;;;;;;;3.27;1.75;;;;;;;9.68;81.05;99026.47;2174932;80;21006;-78
2022/09/17 05:28:05;;;;;;;2.75;2.15;;;;;;;9.74;80.95;99024.90;2175544;81;21594;-78
2022/09/17 05:31:06;;;;;;;7.25;2.67;;;;;;;9.80;80.91;99017.55;2174010;80;21574;-77
2022/09/17 05:34:08;;;;;;;5.83;2.58;;;;;;;9.85;81.05;99017.30;2171357;81;21465;-78
2022/09/17 05:37:11;;;;;;;4.33;1.82;;;;;;;9.92;80.85;99020.52;2172079;81;21007;-77
2022/09/17 05:40:12;;;;;;;5.15;1.92;;;;;;;9.94;80.87;99019.32;2174257;81;21097;-78
2022/09/17 05:43:13;;;;;;;5.45;2.00;;;;;;;9.99;80.85;99020.06;2182844;80;20968;-78
2022/09/17 05:46:14;;;;;;;5.80;1.80;;;;;;;10.02;80.80;99015.70;2174324;81;21018;-78
2022/09/17 05:49:15;;;;;;;3.17;1.87;;;;;;;10.09;80.70;99009.97;2175693;81;21487;-80
2022/09/17 05:52:16;;;;;;;2.50;1.80;;;;;;;10.21;80.81;99012.41;2175657;81;20995;-80
2022/09/17 05:55:21;;;;;;;6.72;2.02;;;;;;;10.43;80.85;99015.06;2173120;81;21529;-82
2022/09/17 05:58:22;;;;;;;4.47;1.80;;;;;;;10.59;80.40;99008.16;2174903;81;21055;-80
2022/09/17 06:01:23;;;;;;;5.05;2.02;;;;;;;10.59;80.40;99008.16;2174858;80;21014;-81
2022/09/17 06:04:24;;;;;;;3.00;2.02;;;;;;;10.66;80.14;99016.14;2176461;81;21007;-81
2022/09/17 06:07:25;;;;;;;4.58;2.25;;;;;;;10.68;80.09;99013.61;2172623;81;21052;-80
2022/09/17 06:10:26;;;;;;;6.10;2.30;;;;;;;10.74;80.01;99009.36;2173333;80;21013;-80
2022/09/17 06:13:28;;;;;;;4.35;1.98;;;;;;;10.77;80.18;99008.97;2177478;81;21043;-80
2022/09/17 06:16:29;;;;;;;6.45;1.75;;;;;;;10.75;79.92;99009.15;2178447;80;21055;-80
2022/09/17 06:19:30;;;;;;;7.60;1.98;;;;;;;10.81;80.09;99014.70;2192721;80;20987;-81
2022/09/17 06:22:32;;;;;;;7.70;2.15;;;;;;;10.84;80.09;99019.61;2197800;80;21052;-80
2022/09/17 06:25:34;;;;;;;5.97;2.10;;;;;;;10.87;80.04;99024.53;2193278;80;21477;-81
2022/09/17 06:28:35;;;;;;;4.87;2.05;;;;;;;10.88;79.99;99026.19;2197506;80;20989;-79
2022/09/17 06:31:36;;;;;;;5.95;2.02;;;;;;;10.90;80.09;99026.82;2195547;80;20943;-81
2022/09/17 06:34:39;;;;;;;5.25;1.87;;;;;;;10.90;80.04;99030.80;2200897;80;21604;-82
2022/09/17 06:37:40;;;;;;;6.67;2.37;;;;;;;10.92;80.00;99034.88;2194386;80;21505;-79
2022/09/17 06:40:41;;;;;;;7.00;2.35;;;;;;;10.96;80.12;99036.65;2191300;80;20986;-78
2022/09/17 06:43:42;;;;;;;6.62;2.30;;;;;;;10.96;80.19;99040.63;2199728;80;21421;-79
2022/09/17 06:46:43;;;;;;;4.83;2.45;;;;;;;10.98;80.24;99054.02;2199113;80;20999;-80
2022/09/17 06:49:44;;;;;;;10.32;2.98;;;;;;;11.05;80.31;99057.22;2196995;80;21061;-79
2022/09/17 06:52:53;;;;;;;10.38;3.00;;;;;;;10.99;80.36;99056.98;2200086;80;21073;-81
2022/09/17 06:55:58;;;;;;;4.05;2.35;;;;;;;10.95;80.64;99050.44;2200221;80;21047;-78
2022/09/17 06:58:59;;;;;;;8.83;2.75;;;;;;;11.00;81.14;99050.64;2201116;80;21417;-76
2022/09/17 07:02:00;;;;;;;9.93;3.30;;;;;;;11.02;81.21;99055.77;2191296;80;21026;-79
2022/09/17 07:05:02;;;;;;;7.30;3.58;;;;;;;11.05;81.25;99059.36;2197100;80;21116;-79
2022/09/17 07:08:04;;;;;;;13.13;3.20;;;;;;;11.12;81.38;99056.25;2193103;80;20995;-76
2022/09/17 07:11:06;;;;;;;9.75;3.33;;;;;;;11.21;81.49;99056.39;2195296;80;21051;-76
2022/09/17 07:14:13;;;;;;;5.75;2.75;;;;;;;11.34;81.33;99053.47;2194633;80;21002;-79
2022/09/17 07:17:14;;;;;;;11.35;3.33;;;;;;;11.46;81.18;99057.22;2187504;80;21067;-78
2022/09/17 07:20:16;;;;;;;8.18;3.08;;;;;;;11.60;81.46;99060.72;2191449;80;21042;-81
2022/09/17 07:23:17;;;;;;;7.17;3.20;;;;;;;11.81;81.50;99064.58;2186223;80;21007;-80
2022/09/17 07:26:18;;;;;;;7.47;2.50;;;;;;;11.93;81.12;99067.50;2184402;80;20944;-78
2022/09/17 07:29:20;;;;;;;8.40;2.60;;;;;;;11.93;80.50;99060.86;2168492;80;21066;-77
2022/09/17 07:32:22;;;;;;;6.47;2.85;;;;;;;11.94;80.50;99065.17;2195850;80;20995;-79
2022/09/17 07:35:23;;;;;;;8.53;2.55;;;;;;;12.00;80.47;99070.20;2185261;80;21528;-79
2022/09/17 07:38:26;;;;;;;7.60;2.72;;;;;;;12.02;80.05;99080.09;2191328;80;20959;-81
2022/09/17 07:41:27;;;;;;;6.10;2.52;;;;;;;11.99;79.85;99083.16;2190009;80;21054;-80
2022/09/17 07:44:28;;;;;;;7.00;2.77;;;;;;;11.91;79.43;99084.19;2194449;80;21475;-79
2022/09/17 07:47:29;;;;;;;9.70;2.80;;;;;;;11.87;79.53;99091.72;2186077;80;21015;-81
2022/09/17 07:50:32;;;;;;;7.62;2.90;;;;;;;11.88;79.39;99102.67;2188373;80;20977;-79
2022/09/17 07:53:33;;;;;;;10.72;3.27;;;;;;;11.91;79.44;99106.78;2189808;80;21011;-78
2022/09/17 07:56:34;;;;;;;6.87;3.33;;;;;;;11.95;79.42;99106.67;2191763;80;21035;-78
2022/09/17 07:59:35;;;;;;;5.25;2.50;;;;;;;12.04;79.32;99106.80;2190253;80;21573;-75
2022/09/17 08:02:36;;;;;;;8.85;3.00;;;;;;;12.02;78.65;99104.87;2188813;80;20959;-77
2022/09/17 08:05:37;;;;;;;6.20;3.00;;;;;;;11.97;78.51;99108.63;2190161;80;21017;-78
2022/09/17 08:08:39;;;;;;;7.30;3.00;;;;;;;11.97;78.46;99109.96;2183963;80;21017;-80
2022/09/17 08:11:41;;;;;;;4.53;2.77;;;;;;;12.00;78.64;99110.89;2186496;80;21549;-78
2022/09/17 08:14:43;;;;;;;8.43;3.33;;;;;;;12.05;78.75;99117.76;2185830;80;21441;-79
2022/09/17 08:17:45;;;;;;;6.53;3.12;;;;;;;12.02;78.56;99117.31;2182074;80;20998;-81
2022/09/17 08:20:46;;;;;;;5.40;3.12;;;;;;;12.02;78.63;99104.02;2174458;81;21461;-82
2022/09/17 08:23:48;;;;;;;7.22;2.98;;;;;;;12.02;78.42;99110.19;2175022;81;21038;-80
2022/09/17 08:26:49;;;;;;;8.40;3.30;;;;;;;12.01;78.12;99103.21;2173024;81;20973;-80
2022/09/17 08:29:50;;;;;;;7.72;3.25;;;;;;;12.00;78.09;99100.77;2176905;81;21020;-80
2022/09/17 08:32:55;;;;;;;7.80;3.10;;;;;;;12.04;78.31;99111.30;2177686;81;21012;-81
2022/09/17 08:35:58;;;;;;;12.58;3.22;;;;;;;12.10;78.26;99107.31;2173926;81;20989;-80
2022/09/17 08:38:59;;;;;;;9.78;3.50;;;;;;;12.15;78.11;99104.06;2157649;81;20994;-82
2022/09/17 08:42:24;;;;;;;9.05;4.15;;;;;;;12.22;78.00;99100.92;2174535;81;21449;-81
2022/09/17 08:45:26;;;;;;;7.58;3.15;;;;;;;12.29;77.91;99104.39;2173957;81;21517;-81
2022/09/17 08:48:32;;;;;;;5.97;3.27;;;;;;;12.34;77.45;99104.61;2168988;81;21457;-81
2022/09/17 08:51:57;;;;;;;6.83;3.30;;;;;;;12.39;77.43;99100.02;2174094;81;21030;-82
2022/09/17 08:55:36;;;;;;;6.97;2.72;;;;;;;12.41;77.12;99099.80;2172288;81;21008;-79
2022/09/17 08:58:55;;;;;;;10.50;3.40;;;;;;;12.46;77.09;99092.84;2171522;81;20975;-81
2022/09/17 09:02:18;;;;;;;12.40;3.15;;;;;;;12.54;77.27;99087.84;2175307;81;20990;-81
2022/09/17 09:05:37;;;;;;;10.40;2.92;;;;;;;12.67;77.39;99068.38;2177743;81;21028;-81
2022/09/17 09:08:50;;;;;;;8.55;2.95;;;;;;;12.81;77.15;99078.51;2170499;81;21513;-80
2022/09/17 09:11:57;;;;;;;5.25;2.70;;;;;;;12.86;76.47;99086.18;2172312;81;21144;-83
2022/09/17 09:15:18;;;;;;;7.42;3.12;;;;;;;12.81;76.10;99087.83;2177134;81;21433;-79
2022/09/17 09:18:28;;;;;;;8.33;3.12;;;;;;;12.85;76.40;99088.55;2182433;80;21029;-77
2022/09/17 09:21:40;;;;;;;5.65;2.77;;;;;;;12.91;76.38;99094.37;2180833;80;21026;-80
2022/09/17 09:25:04;;;;;;;7.40;3.08;;;;;;;12.94;75.64;99096.62;2180687;80;21015;-78
2022/09/17 09:28:22;;;;;;;11.10;3.83;;;;;;;12.99;75.92;99102.66;2185973;80;20995;-77
2022/09/17 09:32:03;;;;;;;7.45;3.10;;;;;;;13.04;75.78;99104.20;2184788;80;21008;-81
2022/09/17 09:35:21;;;;;;;8.70;3.33;;;;;;;13.11;75.53;99101.52;2183817;80;20973;-78
2022/09/17 09:38:48;;;;;;;6.15;2.85;;;;;;;13.12;75.39;99126.63;2180296;80;21001;-77
2022/09/17 09:42:01;;;;;;;9.83;3.10;;;;;;;13.15;75.49;99136.02;2181096;80;20991;-80
2022/09/17 09:45:17;;;;;;;12.07;3.45;;;;;;;13.28;75.52;99135.22;2188924;80;21032;-79
2022/09/17 09:48:49;;;;;;;5.42;3.45;;;;;;;13.53;75.65;99138.84;2184021;80;21020;-80
2022/09/17 09:52:04;;;;;;;6.12;3.42;;;;;;;13.65;74.88;99143.00;2182503;80;20983;-79
2022/09/17 09:55:43;;;;;;;6.92;3.33;;;;;;;13.79;74.52;99137.92;2184824;80;20979;-77
2022/09/17 09:58:44;;;;;;;8.53;3.98;;;;;;;13.80;73.84;99151.58;2180582;80;20980;-81
2022/09/17 10:01:46;;;;;;;5.20;3.45;;;;;;;13.80;73.94;99150.77;2180676;80;21087;-80
2022/09/17 10:04:47;;;;;;;4.05;3.40;;;;;;;13.82;73.84;99148.16;2177198;80;20998;-80
2022/09/17 10:07:49;;;;;;;5.17;3.62;;;;;;;13.87;74.10;99136.35;2180562;80;20999;-79
2022/09/17 10:11:01;;;;;;;7.12;3.85;;;;;;;13.92;73.69;99153.58;2170367;80;21450;-81
2022/09/17 10:14:19;;;;;;;8.95;3.70;;;;;;;14.21;74.14;99143.67;2150987;80;21062;-79
2022/09/17 10:17:23;;;;;;;7.70;3.58;;;;;;;14.67;73.34;99144.43;2179727;80;21082;-79
2022/09/17 10:20:24;;;;;;;5.92;3.60;;;;;;;14.79;72.08;99156.06;2172685;81;21016;-80
2022/09/17 10:23:29;;;;;;;8.85;4.67;;;;;;;14.80;72.17;99156.35;2171517;81;21507;-79
2022/09/17 10:26:33;;;;;;;6.03;3.62;;;;;;;14.64;71.10;99145.71;2177740;81;20998;-80
2022/09/17 10:29:35;;;;;;;4.40;3.50;;;;;;;14.68;71.80;99143.41;2176353;81;20994;-81
2022/09/17 10:32:35;;;;;;;6.05;3.85;;;;;;;15.01;71.92;99143.15;2178044;81;21486;-79
2022/09/17 10:35:37;;;;;;;5.67;3.98;;;;;;;15.37;70.89;99141.55;2178233;81;21026;-81
2022/09/17 10:38:48;;;;;;;8.13;3.80;;;;;;;15.43;71.12;99148.70;2170348;81;20998;-79
2022/09/17 10:42:12;;;;;;;6.50;3.62;;;;;;;15.35;69.59;99144.98;2176815;81;21014;-80
2022/09/17 10:45:28;;;;;;;7.83;3.80;;;;;;;15.15;69.80;99147.33;2176851;81;21090;-80
2022/09/17 10:48:35;;;;;;;5.53;3.67;;;;;;;14.95;70.07;99154.19;2144144;81;21046;-80
2022/09/17 10:51:37;;;;;;;5.67;3.47;;;;;;;14.77;69.65;99153.59;2146375;81;21458;-81
2022/09/17 10:55:04;;;;;;;6.83;3.58;;;;;;;14.57;70.05;99155.61;2177538;81;21024;-83
2022/09/17 10:58:22;;;;;;;4.42;2.83;;;;;;;14.45;70.20;99159.97;2172913;81;21094;-79
2022/09/17 11:02:00;;;;;;;4.70;3.70;;;;;;;14.17;69.80;99160.34;2176432;81;20989;-80
2022/09/17 11:05:24;;;;;;;3.85;3.10;;;;;;;13.99;70.31;99164.50;2173890;81;20985;-77
2022/09/17 11:08:56;;;;;;;6.78;3.98;;;;;;;13.82;70.62;99161.49;2173174;81;21083;-76
2022/09/17 11:12:50;;;;;;;5.70;3.42;;;;;;;13.75;70.99;99151.91;2174328;81;21026;-78
2022/09/17 11:16:03;;;;;;;3.58;2.87;;;;;;;13.62;70.93;99159.42;2175623;81;21033;-80
2022/09/17 11:19:48;;;;;;;4.85;3.52;;;;;;;13.56;71.34;99158.93;2188484;80;21525;-76
2022/09/17 11:23:21;;;;;;;4.85;3.47;;;;;;;13.49;71.57;99156.78;2192116;80;21508;-78
2022/09/17 11:26:33;;;;;;;5.53;3.17;;;;;;;13.32;71.52;99162.58;2191932;80;21003;-77
2022/09/17 11:30:01;;;;;;;5.33;3.02;;;;;;;13.27;71.86;99158.38;2194705;80;20956;-80
2022/09/17 11:33:37;;;;;;;5.97;3.25;;;;;;;13.24;71.86;99154.77;2198131;80;20966;-79
2022/09/17 11:37:24;;;;;;;4.10;3.08;;;;;;;13.22;72.04;99156.30;2189738;80;21012;-79
2022/09/17 11:40:39;;;;;;;4.83;2.70;;;;;;;13.33;72.17;99140.23;2195321;80;20919;-79
2022/09/17 11:43:52;;;;;;;4.47;3.30;;;;;;;13.57;72.59;99131.23;2196332;80;21522;-81
2022/09/17 11:46:57;;;;;;;3.58;3.20;;;;;;;13.87;72.76;99127.02;2193976;80;20983;-76
2022/09/17 11:50:25;;;;;;;3.20;1.98;;;;;;;14.24;72.25;99123.23;2194180;80;21082;-78
2022/09/17 11:53:38;;;;;;;3.22;2.15;;;;;;;14.37;71.14;99116.20;2193197;80;21014;-77
2022/09/17 11:57:11;;;;;;;3.33;2.10;;;;;;;14.40;70.86;99127.77;2191555;80;21067;-81
2022/09/17 12:00:21;;;;;;;3.77;2.40;;;;;;;14.39;70.56;99121.62;2180165;80;21130;-77
2022/09/17 12:03:29;;;;;;;;;;;;;;;14.37;70.39;99110.34;2199267;80;20947;-77
2022/09/17 12:06:44;;;;;;;6.53;3.58;;;;;;;14.42;70.79;99114.52;2198318;80;20126;-77
2022/09/17 12:10:03;;;;;;;9.18;4.45;;;;;;;14.40;70.35;99105.09;2196578;80;21047;-80
2022/09/17 12:13:30;;;;;;;11.83;4.37;;;;;;;14.33;70.46;99100.63;2187580;80;20943;-80
2022/09/17 12:16:42;;;;;;;8.53;4.22;;;;;;;14.30;70.15;99093.05;2195054;80;20991;-79
2022/09/17 12:19:49;;;;;;;4.03;2.70;;;;;;;14.45;70.67;99093.25;2180276;80;21049;-81
2022/09/17 12:22:52;;;;;;;8.30;4.22;;;;;;;14.61;70.33;99086.05;2175212;81;21027;-79
2022/09/17 12:26:04;;;;;;;6.90;3.50;;;;;;;14.68;70.24;99084.16;2173931;80;21577;-79
2022/09/17 12:29:36;;;;;;;4.55;2.65;;;;;;;14.70;70.14;99082.62;2173194;80;21541;-83
2022/09/17 12:33:06;;;;;;;3.17;2.58;;;;;;;14.80;70.00;99082.39;2175121;81;21466;-81
2022/09/17 12:36:22;;;;;;;5.17;2.60;;;;;;;15.06;69.62;99080.50;2175569;80;20987;-78
2022/09/17 12:39:54;;;;;;;4.65;2.60;;;;;;;15.20;69.29;99083.37;2175914;80;21016;-80
2022/09/17 12:43:10;;;;;;;5.22;2.08;;;;;;;15.25;69.21;99069.31;2160362;80;21585;-80
2022/09/17 12:46:47;;;;;;;5.83;2.20;;;;;;;15.41;69.07;99066.05;2172520;80;21075;-79
2022/09/17 12:50:09;;;;;;;6.90;2.58;;;;;;;15.47;68.31;99071.84;2171444;80;21620;-80
2022/09/17 12:53:35;;;;;;;5.10;2.30;;;;;;;15.51;67.64;99062.03;2174004;80;21007;-78
2022/09/17 12:57:00;;;;;;;2.17;1.98;;;;;;;15.57;67.68;99065.14;2173971;81;21007;-81
2022/09/17 13:00:15;;;;;;;7.17;2.58;;;;;;;15.78;67.76;99062.55;2176025;80;21015;-81
2022/09/17 13:03:38;;;;;;;3.60;1.95;;;;;;;16.10;67.65;99057.23;2168174;81;21040;-80
2022/09/17 13:07:01;;;;;;;4.55;2.40;;;;;;;16.42;66.21;99040.92;2177196;80;21043;-82
2022/09/17 13:10:24;;;;;;;3.98;2.05;;;;;;;16.58;66.28;99029.53;2174311;81;21523;-82
2022/09/17 13:13:37;;;;;;;2.67;1.75;;;;;;;16.50;65.22;99031.22;2172093;81;21046;-83
2022/09/17 13:17:01;;;;;;;1.98;1.35;;;;;;;16.42;64.84;99025.39;2175458;80;20984;-85
2022/09/17 13:20:16;;;;;;;1.90;1.70;;;;;;;16.31;65.00;99027.00;2176005;80;21042;-85
2022/09/17 13:23:33;;;;;;;3.40;1.80;;;;;;;16.19;64.67;99027.48;2161584;81;21041;-82
2022/09/17 13:26:38;;;;;;;4.03;2.02;;;;;;;16.10;64.82;99025.13;2171798;80;21109;-82
2022/09/17 13:29:54;;;;;;;6.03;1.70;;;;;;;16.01;64.70;99025.70;2174629;81;21062;-82
2022/09/17 13:32:56;;;;;;;2.40;1.50;;;;;;;15.97;65.03;99027.22;2177357;80;22262;-84
2022/09/17 13:35:59;;;;;;;2.33;1.60;;;;;;;16.03;64.56;99025.77;2136914;82;21054;-85
2022/09/17 13:39:03;;;;;;;2.40;1.37;;;;;;;15.95;64.97;99023.95;2177440;80;21074;-82
2022/09/17 13:42:13;;;;;;;1.12;1.02;;;;;;;15.97;64.98;99035.24;2174027;81;20959;-82
2022/09/17 13:45:17;;;;;;;3.35;1.42;;;;;;;15.99;64.61;99035.28;2173606;81;20982;-81
2022/09/17 13:48:25;;;;;;;1.50;1.40;;;;;;;15.92;64.79;99039.92;2175103;81;21097;-77
2022/09/17 13:51:35;;;;;;;2.80;1.30;;;;;;;15.86;64.70;99038.16;2177005;81;21072;-81
2022/09/17 13:54:38;;;;;;;3.60;1.52;;;;;;;15.75;64.52;99029.58;2175594;81;21492;-80
2022/09/17 13:57:49;;;;;;;3.50;1.40;;;;;;;15.65;65.06;99032.75;2174983;81;21509;-81
2022/09/17 14:00:57;;;;;;;3.10;1.30;;;;;;;15.52;65.46;99033.75;2177256;81;21090;-81
2022/09/17 14:03:59;;;;;;;7.60;2.50;;;;;;;15.37;66.20;99029.30;2177033;80;20982;-78
2022/09/17 14:07:04;;;;;;;1.87;1.50;;;;;;;15.38;67.00;99031.76;2172195;80;21106;-79
2022/09/17 14:10:19;;;;;;;2.52;1.50;;;;;;;15.42;67.07;99024.09;2176607;80;21606;-79
2022/09/17 14:13:41;;;;;;;2.25;0.90;;;;;;;15.40;67.42;99024.84;2173650;81;21338;-78
2022/09/17 14:16:49;;;;;;;2.72;1.10;;;;;;;15.37;67.30;99023.95;2176095;81;21703;-77
2022/09/17 14:19:54;;;;;;;3.27;1.30;;;;;;;15.31;67.40;99008.81;2174166;80;21738;-79
2022/09/17 14:22:59;;;;;;;2.98;1.98;;;;;;;15.26;67.55;99005.50;2174159;80;20976;-81
2022/09/17 14:26:05;;;;;;;7.85;4.70;;;;;;;15.15;67.25;99011.06;2178338;80;21058;-78
2022/09/17 14:29:40;;;;;;;6.87;4.22;;;;;;;15.01;67.17;99011.73;2175795;81;20991;-78
2022/09/17 14:33:06;;;;;;;2.02;1.47;;;;;;;14.89;67.55;99010.01;2174869;81;21036;-80
2022/09/17 14:36:12;;;;;;;2.83;1.10;;;;;;;14.61;66.97;99013.97;2177262;81;21038;-78
2022/09/17 14:39:31;;;;;;;1.40;1.10;;;;;;;14.17;67.43;99022.44;2176638;80;21506;-79
2022/09/17 14:42:35;;;;;;;0.98;0.85;;;;;;;13.87;68.00;99021.70;2173525;80;20976;-79
2022/09/17 14:45:40;;;;;;;2.45;1.10;;;;;;;13.59;68.50;99026.06;2178219;80;20974;-78
2022/09/17 14:48:42;;;;;;;4.67;1.50;;;;;;;13.43;68.97;99019.88;2177521;80;21016;-79
2022/09/17 14:51:43;;;;;;;2.55;1.05;;;;;;;13.36;69.50;99026.58;2179284;80;20986;-79
2022/09/17 14:54:44;;;;;;;1.57;0.90;;;;;;;13.30;69.87;99027.95;2178117;80;20995;-78